KAGS/AGS METAR and TAF weather

Enter ICAO airport designator
Station Type Date Time Source
KAGS METAR 2020/06/01 14:53 UTC NOAA

KAGS 011453Z 09006KT 10SM SCT029 SCT075 26/16 A3025 RMK AO2 SLP240 T02560161 51018


Station Type Date Time Source
KAGS Decoded METAR 2020/06/01 14:53 UTC NOAA

AUGUSTA BUSH FIELD, GA, United States (KAGS) 33-22N 081-58W 44M
Jun 01, 2020 - 10:53 AM EDT / 2020.06.01 1453 UTC
Wind: from the E (090 degrees) at 7 MPH (6 KT):0
Visibility: 10 mile(s):0
Sky conditions: partly cloudy
Temperature: 78.1 F (25.6 C)
Dew Point: 61.0 F (16.1 C)
Relative Humidity: 55%
Pressure (altimeter): 30.25 in. Hg (1024 hPa)
Pressure tendency: 0.05 inches (1.8 hPa) higher than three hours ago
ob: KAGS 011453Z 09006KT 10SM SCT029 SCT075 26/16 A3025 RMK AO2 SLP240 T02560161 51018
cycle: 15

Station Type Date Time Source
KAGS TAF 2020/06/01 15:03 UTC NOAA

TAF
AMD KAGS 011500Z 0115/0212 08007KT P6SM FEW060
FM012200 11003KT P6SM FEW050

Example: see airport list